Aérodrome :
LOGIN :

S'inscrire | Disclaimer

   EN    FR    IT 

 










Légende :    VFR   VFR Marginal   IFR   IFR Intensif   IFR Très Intensif
Visi : 
Plafond : 
>= 8 km
>= 3000ft
5 à 8 km
1000 à 3000 ft
1500m à 5 km
500 à 1000 ft
800 à 1500m
200 à 500 ft
< 800m
< 200 ft
Symboles :   Orages  Brouillard  Fortes neiges  Fortes précipitations  Vent > 20 kt
SIGMETs :   Divers  Orages  Givrage  Turbulence  Onde Orograph.  Cendres Volcan.







- Altitude de l'aérodrome : 63 ft
- Code IATA : BZM


EHWO - Woensdrecht Airbase

DERNIER METAR :
  • 171825Z AUTO 29004KT 240V320 9999 FEW034 02/M00 Q1010 BLU

METARs EXPIRÉS :
  • 171755Z AUTO 31005KT 260V360 9999 FEW015CB BKN130 03/01 Q1010 BLU
  • 171737Z AUTO 31005KT 230V350 9999 FEW021 SCT028 BKN046 03/01 Q1009 BLU
  • 171727Z AUTO 30005KT 240V350 9999 -RA SCT022 BKN028 OVC031 03/01 Q1009 WHT
  • 171725Z AUTO 30005KT 250V360 9999 FEW011 BKN028 OVC033 03/01 Q1009 REDZ BLU
  • 171655Z AUTO 32005KT 250V010 9999 FEW015CB SCT067 03/01 Q1008 BLU
  • 171641Z AUTO 31010KT 260V040 9999 FEW015CB BKN021 BKN027 03/01 Q1008 WHT
  • 171633Z AUTO 30010KT 250V010 9999 FEW015CB SCT017 BKN026 03/01 Q1008 WHT
  • 171617Z AUTO 29012KT 240V350 9999 -TSRA -DZ FEW008 SCT015CB BKN022 03/02 Q1007 WHT
  • 171559Z AUTO 29019G34KT 220V330 9000 -RA FEW001 SCT007 BKN011 FEW015CB 03/02 Q1007 GRN
  • 171555Z AUTO 29022G34KT 230V330 4400 RADZ FEW007 SCT014 BKN018 02/01 Q1007 GRN
  • 171544Z AUTO 29014G28KT 230V320 9999 DZRA FEW008 SCT021 BKN025 03/01 Q1007 WHT

TAF TAF EHWO
Valide du 17 à 10h jusqu'au 17 à 22h UTC


170902Z 1710/1722 29012KT 6000 SCT020 BKN035
TEMPO 1710/1722 30015G25KT 3000 SHRASN SCT005 BKN012 SCT019CB
PROB30
TEMPO 1710/1718 2000 TSRAGS TSRASN SCT002 BKN005 SCT018CB
Pas de NOTAMs connus pour ce terrain.



MET'MAP, la Météo Aéronautique d'un coup d'oeil ! - Copyright ORBIFLY Décembre 2007 - Disclaimer

ORBIFLY MET'MAP TEAM :

Programmation & Développement : Alexandra Zaïnal
Conception & Développement : Baudouin d'Aumeries
Co-Programmation & Développement : Marc-Olivier Méhu
Soutien technique & logistique : Manuel Goepfert

Contact : metmap@orbifly.com




SOURCES & CREDITS :

   NOAA